createdAt,value
2023-06-24T00:03:47.421Z,98282.81
2023-06-24T00:07:48.839Z,98287.72
2023-06-24T00:11:50.258Z,98286.28
2023-06-24T00:15:52.982Z,98287.13
2023-06-24T00:19:54.347Z,98280.94
2023-06-24T00:23:55.713Z,98281.34
2023-06-24T00:27:57.103Z,98282.91
2023-06-24T00:31:59.903Z,98282.69
2023-06-24T00:36:01.287Z,98283.09
2023-06-24T00:40:02.751Z,98274.84
2023-06-24T00:44:04.253Z,98272.56
2023-06-24T00:48:07.213Z,98271.97
2023-06-24T00:52:08.808Z,98267.44
2023-06-24T00:56:10.713Z,98265.88
2023-06-24T01:00:12.671Z,98255.78
2023-06-24T01:04:15.393Z,98265.44
2023-06-24T01:08:16.810Z,98262.38
2023-06-24T01:12:18.189Z,98265.63
2023-06-24T01:16:24.202Z,98265.44
2023-06-24T01:20:30.595Z,98256.50
2023-06-24T01:24:35.239Z,98245.47
2023-06-24T01:28:51.244Z,98257.41
2023-06-24T01:32:55.701Z,98261.72
2023-06-24T01:37:01.775Z,98249.22
2023-06-24T01:41:04.105Z,98242.41
2023-06-24T01:45:07.242Z,98239.69
2023-06-24T01:49:12.767Z,98250.91
2023-06-24T01:53:15.280Z,98239.03
2023-06-24T01:57:18.541Z,98235.63
2023-06-24T02:01:20.278Z,98236.16
2023-06-24T02:05:24.340Z,98236.09
2023-06-24T02:09:26.254Z,98230.56
2023-06-24T02:13:28.369Z,98240.69
2023-06-24T02:17:29.784Z,98231.31
2023-06-24T02:21:32.928Z,98238.91
2023-06-24T02:25:35.258Z,98228.00
2023-06-24T02:29:38.172Z,98238.00
2023-06-24T02:33:39.862Z,98243.75
2023-06-24T02:42:26.461Z,98237.06
2023-06-24T02:46:28.529Z,98241.50
2023-06-24T02:50:30.468Z,98251.19
2023-06-24T02:54:32.129Z,98258.19
2023-06-24T02:58:37.271Z,98256.97
2023-06-24T03:02:39.260Z,98263.13
2023-06-24T03:06:41.019Z,98260.06
2023-06-24T03:10:42.387Z,98265.91
2023-06-24T03:14:45.079Z,98275.13
2023-06-24T03:18:46.430Z,98279.78
2023-06-24T03:22:47.772Z,98287.66
2023-06-24T03:26:49.123Z,98304.31
2023-06-24T03:30:51.810Z,98305.47
2023-06-24T03:34:53.152Z,98310.63
2023-06-24T03:38:54.654Z,98319.72
2023-06-24T03:42:56.059Z,98317.06
2023-06-24T03:46:58.778Z,98319.56
2023-06-24T03:51:00.187Z,98334.47
2023-06-24T03:55:01.603Z,98332.56
2023-06-24T03:59:05.683Z,98325.88
2023-06-24T04:03:09.449Z,98325.25
2023-06-24T04:07:10.929Z,98330.50
2023-06-24T04:11:12.356Z,98325.81
2023-06-24T04:15:13.770Z,98338.13
2023-06-24T04:19:16.552Z,98338.41
2023-06-24T04:23:17.956Z,98340.59
2023-06-24T04:27:19.332Z,98339.44
2023-06-24T04:31:20.785Z,98337.09
2023-06-24T04:35:23.573Z,98346.44
2023-06-24T04:39:24.982Z,98331.69
2023-06-24T04:43:26.436Z,98342.34
2023-06-24T04:47:27.880Z,98340.84
2023-06-24T04:51:30.656Z,98347.59
2023-06-24T04:55:32.291Z,98360.22
2023-06-24T04:59:33.782Z,98357.69
2023-06-24T05:03:35.173Z,98355.16
2023-06-24T05:07:37.901Z,98355.97
2023-06-24T05:11:39.341Z,98354.75
2023-06-24T05:15:40.723Z,98365.72
2023-06-24T05:19:42.106Z,98368.13
2023-06-24T05:23:44.839Z,98363.34
2023-06-24T05:27:46.248Z,98362.94
2023-06-24T05:31:47.670Z,98367.72
2023-06-24T05:35:49.140Z,98369.44
2023-06-24T05:39:51.861Z,98369.78
2023-06-24T05:44:01.910Z,98362.47
2023-06-24T05:48:03.404Z,98367.06
2023-06-24T05:52:05.028Z,98374.59
2023-06-24T05:56:07.768Z,98376.78
2023-06-24T06:00:09.576Z,98378.00
2023-06-24T06:04:11.051Z,98368.94
2023-06-24T06:08:12.461Z,98375.66
2023-06-24T06:12:15.188Z,98377.34
2023-06-24T06:16:16.594Z,98369.59
2023-06-24T06:20:17.985Z,98374.84
2023-06-24T06:24:19.373Z,98379.97
2023-06-24T06:28:22.095Z,98378.78
2023-06-24T06:32:23.489Z,98369.75
2023-06-24T06:36:24.891Z,98373.38
2023-06-24T06:40:26.296Z,98378.06
2023-06-24T06:44:29.050Z,98372.97
2023-06-24T06:48:30.434Z,98372.53
2023-06-24T06:52:31.821Z,98362.63
2023-06-24T06:56:33.224Z,98350.53
2023-06-24T07:00:35.980Z,98356.97
2023-06-24T07:04:37.375Z,98352.75
2023-06-24T07:08:38.747Z,98356.50
2023-06-24T07:12:40.201Z,98357.28
2023-06-24T07:16:42.977Z,98363.41
2023-06-24T07:20:44.377Z,98354.28
2023-06-24T07:24:45.773Z,98352.94
2023-06-24T07:29:00.097Z,98356.22
2023-06-24T07:33:06.960Z,98350.84
2023-06-24T07:37:19.415Z,98342.78
2023-06-24T07:41:24.354Z,98348.28
2023-06-24T07:45:25.745Z,98350.97
2023-06-24T07:49:28.451Z,98359.97
2023-06-24T07:53:29.844Z,98361.09
2023-06-24T07:57:31.420Z,98356.03
2023-06-24T08:01:32.848Z,98360.25
2023-06-24T08:05:35.794Z,98352.06
2023-06-24T08:09:37.340Z,98351.91
2023-06-24T08:13:38.973Z,98358.94
2023-06-24T08:17:40.415Z,98350.94
2023-06-24T08:21:43.190Z,98343.81
2023-06-24T08:25:44.589Z,98345.91
2023-06-24T08:29:46.010Z,98334.78
2023-06-24T08:33:47.393Z,98332.22
2023-06-24T08:37:50.145Z,98336.47
2023-06-24T08:41:51.538Z,98320.47
2023-06-24T08:45:53.492Z,98321.19
2023-06-24T08:50:00.632Z,98329.44
2023-06-24T08:54:03.516Z,98323.94
2023-06-24T08:58:04.988Z,98328.50
2023-06-24T09:02:06.472Z,98321.06
2023-06-24T09:06:07.947Z,98324.50
2023-06-24T09:10:11.041Z,98333.56
2023-06-24T09:14:12.786Z,98324.91
2023-06-24T09:18:14.608Z,98322.63
2023-06-24T09:22:16.095Z,98320.19
2023-06-24T09:26:18.828Z,98313.84
2023-06-24T09:30:21.333Z,98317.84
2023-06-24T09:34:22.945Z,98313.97
2023-06-24T09:38:33.005Z,98314.56
2023-06-24T09:42:35.759Z,98313.19
2023-06-24T09:46:37.230Z,98298.19
2023-06-24T09:50:38.672Z,98303.97
2023-06-24T09:54:40.396Z,98300.66
2023-06-24T09:58:44.382Z,98297.53
2023-06-24T10:02:46.098Z,98285.41
2023-06-24T10:06:47.670Z,98291.97
2023-06-24T10:10:49.109Z,98302.72
2023-06-24T10:14:51.873Z,98290.84
2023-06-24T10:18:53.260Z,98289.16
2023-06-24T10:22:54.633Z,98289.94
2023-06-24T10:26:56.052Z,98269.41
2023-06-24T10:30:58.820Z,98261.25
2023-06-24T10:35:00.259Z,98258.28
2023-06-24T10:39:02.320Z,98260.56
2023-06-24T10:43:23.706Z,98254.50
2023-06-24T10:47:27.084Z,98254.91
2023-06-24T10:51:28.518Z,98246.84
2023-06-24T10:55:29.894Z,98236.28
2023-06-24T10:59:34.797Z,98234.81
2023-06-24T11:03:40.846Z,98227.13
2023-06-24T11:07:42.326Z,98212.81
2023-06-24T11:11:43.735Z,98210.34
2023-06-24T11:15:45.115Z,98210.47
2023-06-24T11:19:47.856Z,98203.13
2023-06-24T11:23:49.248Z,98201.09
2023-06-24T11:27:50.930Z,98201.34
2023-06-24T11:31:52.308Z,98179.53
2023-06-24T11:35:55.044Z,98179.44
2023-06-24T11:40:01.629Z,98172.53
2023-06-24T11:44:03.078Z,98177.81
2023-06-24T11:48:04.826Z,98166.88
2023-06-24T11:52:07.863Z,98165.78
2023-06-24T11:56:09.251Z,98171.31
2023-06-24T12:00:13.312Z,98157.91
2023-06-24T12:04:14.915Z,98153.50
2023-06-24T12:08:19.019Z,98151.13
2023-06-24T12:12:20.400Z,98149.03
2023-06-24T12:16:21.762Z,98146.00
2023-06-24T12:20:23.235Z,98149.56
2023-06-24T12:24:26.011Z,98140.56
2023-06-24T12:28:27.453Z,98136.38
2023-06-24T12:32:28.926Z,98124.78
2023-06-24T12:36:30.375Z,98128.25
2023-06-24T12:40:33.157Z,98125.13
2023-06-24T12:44:34.590Z,98121.41
2023-06-24T12:48:35.984Z,98109.34
2023-06-24T12:52:37.680Z,98121.31
2023-06-24T12:56:40.421Z,98117.41
2023-06-24T13:00:41.847Z,98119.53
2023-06-24T13:04:43.221Z,98115.13
2023-06-24T13:08:44.600Z,98117.75
2023-06-24T13:12:47.525Z,98111.09
2023-06-24T13:16:49.430Z,98112.06
2023-06-24T13:20:51.044Z,98111.66
2023-06-24T13:24:52.447Z,98097.38
2023-06-24T13:28:55.235Z,98101.06
2023-06-24T13:32:56.682Z,98094.13
2023-06-24T13:36:58.141Z,98093.25
2023-06-24T13:40:59.523Z,98091.91
2023-06-24T13:45:02.408Z,98090.75
2023-06-24T13:49:06.210Z,98091.06
2023-06-24T13:53:07.961Z,98085.00
2023-06-24T13:57:09.337Z,98080.25
2023-06-24T14:01:12.157Z,98081.31
2023-06-24T14:05:13.584Z,98070.97
2023-06-24T14:09:14.976Z,98070.56
2023-06-24T14:13:16.367Z,98066.81
2023-06-24T14:17:19.096Z,98060.31
2023-06-24T14:21:20.482Z,98057.53
2023-06-24T14:25:21.855Z,98056.31
2023-06-24T14:29:23.245Z,98054.84
2023-06-24T14:33:25.984Z,98042.25
2023-06-24T14:37:27.387Z,98041.94
2023-06-24T14:41:28.788Z,98044.97
2023-06-24T14:45:30.202Z,98037.75
2023-06-24T14:49:32.940Z,98026.78
2023-06-24T14:53:34.325Z,98027.28
2023-06-24T14:57:36.454Z,98024.56
2023-06-24T15:01:37.894Z,98027.63
2023-06-24T15:05:40.641Z,98024.03
2023-06-24T15:09:42.039Z,98021.59
2023-06-24T15:13:43.438Z,98023.13
2023-06-24T15:17:44.866Z,98011.88
2023-06-24T15:21:47.642Z,98016.88
2023-06-24T15:25:49.042Z,98009.38
2023-06-24T15:29:50.439Z,98002.06
2023-06-24T15:33:51.856Z,98004.38
2023-06-24T15:37:54.608Z,98009.69
2023-06-24T15:41:55.998Z,98001.28
2023-06-24T15:45:57.538Z,98000.44
2023-06-24T15:49:59.027Z,97991.81
2023-06-24T15:54:01.771Z,98002.09
2023-06-24T15:58:03.158Z,97990.88
2023-06-24T16:02:04.662Z,97996.53
2023-06-24T16:06:06.094Z,97985.84
2023-06-24T16:10:09.596Z,97986.22
2023-06-24T16:14:11.054Z,97991.28
2023-06-24T16:18:12.499Z,97994.66
2023-06-24T16:22:13.913Z,97982.56
2023-06-24T16:26:16.649Z,97983.06
2023-06-24T16:30:18.037Z,97985.44
2023-06-24T16:34:24.345Z,97981.34
2023-06-24T16:38:26.460Z,97977.03
2023-06-24T16:42:29.255Z,97980.41
2023-06-24T16:46:30.667Z,97978.03
2023-06-24T16:50:32.070Z,97965.50
2023-06-24T16:54:33.487Z,97968.81
2023-06-24T16:58:36.396Z,97971.22
2023-06-24T17:02:37.897Z,97966.22
2023-06-24T17:06:39.748Z,97972.75
2023-06-24T17:10:41.398Z,97974.09
2023-06-24T17:14:44.164Z,97972.50
2023-06-24T17:18:45.558Z,97965.50
2023-06-24T17:22:46.944Z,97964.94
2023-06-24T17:26:48.331Z,97965.06
2023-06-24T17:30:51.290Z,97968.53
2023-06-24T17:34:52.786Z,97965.69
2023-06-24T17:38:54.183Z,97960.63
2023-06-24T17:42:55.648Z,97955.31
2023-06-24T17:46:58.427Z,97952.53
2023-06-24T17:50:59.811Z,97960.19
2023-06-24T17:55:01.216Z,97955.19
2023-06-24T17:59:02.649Z,97959.97
2023-06-24T18:03:05.448Z,97961.13
2023-06-24T18:07:06.940Z,97960.31
2023-06-24T18:11:08.379Z,97955.63
2023-06-24T18:15:10.196Z,97955.06
2023-06-24T18:19:12.915Z,97965.13
2023-06-24T18:23:14.323Z,97952.31
2023-06-24T18:27:15.714Z,97962.00
2023-06-24T18:31:17.280Z,97961.19
2023-06-24T18:35:20.158Z,97957.47
2023-06-24T18:39:21.574Z,97962.88
2023-06-24T18:43:22.960Z,97967.09
2023-06-24T18:47:24.349Z,97970.63
2023-06-24T18:51:27.112Z,97972.09
2023-06-24T18:55:28.511Z,97962.56
2023-06-24T18:59:29.920Z,97967.59
2023-06-24T19:03:31.515Z,97971.00
2023-06-24T19:07:34.389Z,97968.13
2023-06-24T19:11:36.045Z,97974.94
2023-06-24T19:15:37.461Z,97972.41
2023-06-24T19:19:38.854Z,97967.50
2023-06-24T19:23:41.599Z,97971.53
2023-06-24T19:27:43.011Z,97985.25
2023-06-24T19:31:44.500Z,97981.81
2023-06-24T19:35:45.930Z,97986.81
2023-06-24T19:39:48.681Z,97992.81
2023-06-24T19:43:50.191Z,98000.06
2023-06-24T19:47:52.558Z,98004.34
2023-06-24T19:51:53.924Z,98003.75
2023-06-24T19:55:56.640Z,98005.91
2023-06-24T19:59:58.039Z,98013.31
2023-06-24T20:03:59.400Z,98007.56
2023-06-24T20:08:00.824Z,98015.25
2023-06-24T20:12:03.781Z,98007.72
2023-06-24T20:16:05.278Z,98017.69
2023-06-24T20:20:07.395Z,98010.44
2023-06-24T20:24:08.783Z,98008.44
2023-06-24T20:28:11.535Z,98007.75
2023-06-24T20:32:12.933Z,98000.69
2023-06-24T20:36:14.313Z,98003.28
2023-06-24T20:40:15.695Z,98002.31
2023-06-24T20:44:18.462Z,98003.41
2023-06-24T20:48:19.905Z,98002.69
2023-06-24T20:52:23.015Z,98001.50
2023-06-24T20:56:24.527Z,98007.06
2023-06-24T21:00:27.266Z,98004.25
2023-06-24T21:04:28.661Z,98005.81
2023-06-24T21:08:30.100Z,98000.22
2023-06-24T21:12:31.493Z,98002.03
2023-06-24T21:16:34.296Z,98016.22
2023-06-24T21:20:36.061Z,98010.78
2023-06-24T21:24:37.708Z,98009.13
2023-06-24T21:28:39.089Z,98012.19
2023-06-24T21:32:41.867Z,98020.13
2023-06-24T21:36:43.267Z,98009.63
2023-06-24T21:40:44.775Z,98011.31
2023-06-24T21:44:46.159Z,98016.47
2023-06-24T21:48:48.912Z,98014.78
2023-06-24T21:52:50.351Z,98020.44
2023-06-24T21:56:51.750Z,98029.22
2023-06-24T22:00:53.170Z,98031.59
2023-06-24T22:04:55.933Z,98022.38
2023-06-24T22:08:57.860Z,98026.53
2023-06-24T22:12:59.269Z,98025.47
2023-06-24T22:17:05.013Z,98023.66
2023-06-24T22:21:07.769Z,98020.88
2023-06-24T22:25:09.780Z,98017.06
2023-06-24T22:29:11.192Z,98017.69
2023-06-24T22:33:12.598Z,98019.13
2023-06-24T22:37:15.372Z,98017.47
2023-06-24T22:41:16.878Z,98012.75
2023-06-24T22:45:18.283Z,98008.44
2023-06-24T22:49:19.669Z,98006.56
2023-06-24T22:53:22.442Z,98003.94
2023-06-24T22:57:23.837Z,98005.03
2023-06-24T23:01:25.246Z,97998.56
2023-06-24T23:05:27.057Z,98003.50
2023-06-24T23:09:30.175Z,97999.06
2023-06-24T23:13:32.255Z,98000.72
2023-06-24T23:17:33.919Z,98001.88
2023-06-24T23:21:35.579Z,97992.91
2023-06-24T23:25:38.677Z,97992.41
2023-06-24T23:29:40.869Z,97995.69
2023-06-24T23:33:42.414Z,98001.06
2023-06-24T23:37:44.024Z,97996.94
2023-06-24T23:41:47.043Z,97998.19
2023-06-24T23:45:49.273Z,97993.88
2023-06-24T23:49:50.717Z,97992.81
2023-06-24T23:53:52.112Z,97987.34
2023-06-24T23:57:54.860Z,97993.50
